sensor_id;sensor_type;location;lat;lon;timestamp;pressure;altitude;pressure_sealevel;temperature;humidity
40872;BME280;26591;43.264;26.940;2022-11-21T00:00:29;98119.22;;;13.07;85.51
40872;BME280;26591;43.264;26.940;2022-11-21T00:02:59;98120.03;;;12.88;86.72
40872;BME280;26591;43.264;26.940;2022-11-21T00:05:26;98109.22;;;12.89;86.59
40872;BME280;26591;43.264;26.940;2022-11-21T00:07:53;98106.16;;;12.92;86.94
40872;BME280;26591;43.264;26.940;2022-11-21T00:10:18;98109.00;;;12.84;87.01
40872;BME280;26591;43.264;26.940;2022-11-21T00:12:44;98105.16;;;13.00;87.02
40872;BME280;26591;43.264;26.940;2022-11-21T00:15:09;98088.38;;;12.93;86.68
40872;BME280;26591;43.264;26.940;2022-11-21T00:17:35;98082.84;;;12.94;85.97
40872;BME280;26591;43.264;26.940;2022-11-21T00:20:04;98082.66;;;13.03;86.26
40872;BME280;26591;43.264;26.940;2022-11-21T00:22:30;98089.19;;;13.13;85.91
40872;BME280;26591;43.264;26.940;2022-11-21T00:24:57;98075.72;;;13.08;85.54
40872;BME280;26591;43.264;26.940;2022-11-21T00:27:23;98074.91;;;13.08;86.22
40872;BME280;26591;43.264;26.940;2022-11-21T00:29:48;98075.47;;;13.17;85.81
40872;BME280;26591;43.264;26.940;2022-11-21T00:32:14;98061.16;;;13.24;85.77
40872;BME280;26591;43.264;26.940;2022-11-21T00:34:39;98043.38;;;13.32;85.04
40872;BME280;26591;43.264;26.940;2022-11-21T00:37:05;98035.84;;;13.22;85.28
40872;BME280;26591;43.264;26.940;2022-11-21T00:39:30;98034.78;;;13.30;84.64
40872;BME280;26591;43.264;26.940;2022-11-21T00:41:56;98030.72;;;13.27;84.98
40872;BME280;26591;43.264;26.940;2022-11-21T00:44:21;98026.81;;;13.30;84.86
40872;BME280;26591;43.264;26.940;2022-11-21T00:46:47;98023.38;;;13.22;85.39
40872;BME280;26591;43.264;26.940;2022-11-21T00:49:12;98005.34;;;13.38;84.73
40872;BME280;26591;43.264;26.940;2022-11-21T00:51:38;98017.84;;;13.31;84.73
40872;BME280;26591;43.264;26.940;2022-11-21T00:54:03;97997.41;;;13.24;84.65
40872;BME280;26591;43.264;26.940;2022-11-21T00:56:29;97988.28;;;13.07;85.19
40872;BME280;26591;43.264;26.940;2022-11-21T00:58:54;97987.47;;;12.86;85.55
40872;BME280;26591;43.264;26.940;2022-11-21T01:01:20;97980.09;;;13.02;86.13
40872;BME280;26591;43.264;26.940;2022-11-21T01:03:45;97983.34;;;13.10;86.63
40872;BME280;26591;43.264;26.940;2022-11-21T01:06:12;97982.06;;;13.26;86.77
40872;BME280;26591;43.264;26.940;2022-11-21T01:08:40;97972.38;;;12.93;87.96
40872;BME280;26591;43.264;26.940;2022-11-21T01:11:08;97981.44;;;13.45;87.56
40872;BME280;26591;43.264;26.940;2022-11-21T01:13:35;97973.66;;;13.36;87.00
40872;BME280;26591;43.264;26.940;2022-11-21T01:16:16;97962.28;;;13.68;86.38
40872;BME280;26591;43.264;26.940;2022-11-21T01:18:43;97958.47;;;13.57;85.85
40872;BME280;26591;43.264;26.940;2022-11-21T01:21:29;97971.34;;;13.53;86.09
40872;BME280;26591;43.264;26.940;2022-11-21T01:23:55;97983.78;;;13.66;85.08
40872;BME280;26591;43.264;26.940;2022-11-21T01:26:23;97980.69;;;13.76;85.09
40872;BME280;26591;43.264;26.940;2022-11-21T01:28:49;97977.72;;;13.46;84.84
40872;BME280;26591;43.264;26.940;2022-11-21T01:31:22;97971.56;;;13.58;85.69
40872;BME280;26591;43.264;26.940;2022-11-21T01:33:49;97960.44;;;13.75;85.27
40872;BME280;26591;43.264;26.940;2022-11-21T01:36:18;97963.88;;;13.76;84.90
40872;BME280;26591;43.264;26.940;2022-11-21T01:38:51;97956.13;;;13.74;84.84
40872;BME280;26591;43.264;26.940;2022-11-21T01:41:22;97944.91;;;13.72;85.20
40872;BME280;26591;43.264;26.940;2022-11-21T01:43:47;97927.53;;;13.69;85.00
40872;BME280;26591;43.264;26.940;2022-11-21T01:46:21;97909.53;;;13.71;85.05
40872;BME280;26591;43.264;26.940;2022-11-21T01:51:20;97921.47;;;13.55;85.26
40872;BME280;26591;43.264;26.940;2022-11-21T01:53:56;97921.38;;;13.30;88.25
40872;BME280;26591;43.264;26.940;2022-11-21T01:56:23;97915.50;;;13.67;87.53
40872;BME280;26591;43.264;26.940;2022-11-21T01:58:51;97910.72;;;13.76;87.03
40872;BME280;26591;43.264;26.940;2022-11-21T02:01:17;97920.22;;;13.97;86.38
40872;BME280;26591;43.264;26.940;2022-11-21T02:03:44;97921.84;;;14.48;83.02
40872;BME280;26591;43.264;26.940;2022-11-21T02:06:11;97936.84;;;14.87;81.92
40872;BME280;26591;43.264;26.940;2022-11-21T02:08:38;97948.19;;;15.01;80.61
40872;BME280;26591;43.264;26.940;2022-11-21T02:11:26;97933.41;;;15.54;78.90
40872;BME280;26591;43.264;26.940;2022-11-21T02:13:55;97917.09;;;15.62;78.25
40872;BME280;26591;43.264;26.940;2022-11-21T02:16:27;97892.78;;;15.70;77.02
40872;BME280;26591;43.264;26.940;2022-11-21T02:18:53;97887.66;;;16.11;75.17
40872;BME280;26591;43.264;26.940;2022-11-21T02:26:24;97886.84;;;16.11;74.50
40872;BME280;26591;43.264;26.940;2022-11-21T02:28:49;97863.78;;;16.28;73.36
40872;BME280;26591;43.264;26.940;2022-11-21T02:31:15;97875.94;;;16.48;71.80
40872;BME280;26591;43.264;26.940;2022-11-21T02:33:40;97865.59;;;16.75;72.02
40872;BME280;26591;43.264;26.940;2022-11-21T02:36:38;97867.81;;;16.67;71.00
40872;BME280;26591;43.264;26.940;2022-11-21T02:39:10;97855.31;;;16.20;72.72
40872;BME280;26591;43.264;26.940;2022-11-21T02:41:47;97865.59;;;16.63;70.85
40872;BME280;26591;43.264;26.940;2022-11-21T02:44:50;97847.28;;;17.08;69.18
40872;BME280;26591;43.264;26.940;2022-11-21T02:47:13;97834.09;;;16.89;69.03
40872;BME280;26591;43.264;26.940;2022-11-21T02:49:45;97820.16;;;16.87;69.57
40872;BME280;26591;43.264;26.940;2022-11-21T02:52:13;97811.97;;;17.06;68.67
40872;BME280;26591;43.264;26.940;2022-11-21T02:54:39;97820.88;;;16.71;69.34
40872;BME280;26591;43.264;26.940;2022-11-21T02:57:04;97814.34;;;16.90;69.88
40872;BME280;26591;43.264;26.940;2022-11-21T02:59:30;97819.28;;;17.11;69.29
40872;BME280;26591;43.264;26.940;2022-11-21T03:01:55;97812.22;;;17.04;69.37
40872;BME280;26591;43.264;26.940;2022-11-21T03:04:24;97806.09;;;17.21;69.09
40872;BME280;26591;43.264;26.940;2022-11-21T03:06:50;97798.19;;;16.97;69.65
40872;BME280;26591;43.264;26.940;2022-11-21T03:09:16;97792.88;;;17.14;68.96
40872;BME280;26591;43.264;26.940;2022-11-21T03:11:41;97789.19;;;17.32;68.70
40872;BME280;26591;43.264;26.940;2022-11-21T03:14:07;97793.44;;;17.45;68.60
40872;BME280;26591;43.264;26.940;2022-11-21T03:16:32;97796.72;;;17.18;68.98
40872;BME280;26591;43.264;26.940;2022-11-21T03:18:58;97796.19;;;16.92;70.10
40872;BME280;26591;43.264;26.940;2022-11-21T03:21:24;97795.41;;;17.21;69.08
40872;BME280;26591;43.264;26.940;2022-11-21T03:23:49;97782.66;;;17.11;69.32
40872;BME280;26591;43.264;26.940;2022-11-21T03:26:15;97785.03;;;17.07;69.41
40872;BME280;26591;43.264;26.940;2022-11-21T03:28:41;97766.16;;;16.73;70.01
40872;BME280;26591;43.264;26.940;2022-11-21T03:31:07;97761.44;;;16.63;70.97
40872;BME280;26591;43.264;26.940;2022-11-21T03:33:32;97762.53;;;16.51;72.02
40872;BME280;26591;43.264;26.940;2022-11-21T03:35:58;97757.25;;;16.68;71.57
40872;BME280;26591;43.264;26.940;2022-11-21T03:38:23;97748.38;;;16.79;71.14
40872;BME280;26591;43.264;26.940;2022-11-21T03:40:49;97753.78;;;16.67;70.72
40872;BME280;26591;43.264;26.940;2022-11-21T03:43:14;97734.34;;;16.43;72.07
40872;BME280;26591;43.264;26.940;2022-11-21T03:45:40;97729.00;;;16.43;72.52
40872;BME280;26591;43.264;26.940;2022-11-21T03:48:05;97734.38;;;16.60;71.55
40872;BME280;26591;43.264;26.940;2022-11-21T03:50:31;97727.75;;;16.62;71.43
40872;BME280;26591;43.264;26.940;2022-11-21T03:52:59;97730.25;;;17.10;70.54
40872;BME280;26591;43.264;26.940;2022-11-21T03:55:25;97731.97;;;17.16;69.86
40872;BME280;26591;43.264;26.940;2022-11-21T03:57:50;97731.78;;;17.06;69.96
40872;BME280;26591;43.264;26.940;2022-11-21T04:00:16;97712.19;;;17.00;70.08
40872;BME280;26591;43.264;26.940;2022-11-21T04:02:41;97716.84;;;17.22;69.91
40872;BME280;26591;43.264;26.940;2022-11-21T04:05:07;97711.75;;;17.20;69.81
40872;BME280;26591;43.264;26.940;2022-11-21T04:07:33;97697.31;;;16.92;69.98
40872;BME280;26591;43.264;26.940;2022-11-21T04:09:58;97710.19;;;17.07;69.72
40872;BME280;26591;43.264;26.940;2022-11-21T04:12:23;97705.25;;;17.16;68.84
40872;BME280;26591;43.264;26.940;2022-11-21T04:14:49;97711.09;;;17.30;68.94
40872;BME280;26591;43.264;26.940;2022-11-21T04:17:14;97704.88;;;17.42;68.83
40872;BME280;26591;43.264;26.940;2022-11-21T04:19:40;97707.94;;;17.33;69.08
40872;BME280;26591;43.264;26.940;2022-11-21T04:22:05;97710.34;;;17.18;69.13
40872;BME280;26591;43.264;26.940;2022-11-21T04:24:31;97701.69;;;17.45;68.97
40872;BME280;26591;43.264;26.940;2022-11-21T04:26:56;97709.06;;;17.54;68.84
40872;BME280;26591;43.264;26.940;2022-11-21T04:29:22;97706.63;;;17.36;69.07
40872;BME280;26591;43.264;26.940;2022-11-21T04:31:47;97708.50;;;17.18;69.24
40872;BME280;26591;43.264;26.940;2022-11-21T04:34:13;97713.59;;;17.03;69.69
40872;BME280;26591;43.264;26.940;2022-11-21T04:36:38;97718.78;;;17.10;69.47
40872;BME280;26591;43.264;26.940;2022-11-21T04:39:04;97726.53;;;17.11;69.34
40872;BME280;26591;43.264;26.940;2022-11-21T04:41:29;97719.00;;;17.08;69.71
40872;BME280;26591;43.264;26.940;2022-11-21T04:43:55;97731.28;;;16.80;71.25
40872;BME280;26591;43.264;26.940;2022-11-21T04:46:20;97722.56;;;16.56;73.56
40872;BME280;26591;43.264;26.940;2022-11-21T04:48:46;97711.78;;;16.51;74.21
40872;BME280;26591;43.264;26.940;2022-11-21T04:51:11;97693.16;;;16.27;74.86
40872;BME280;26591;43.264;26.940;2022-11-21T04:53:37;97704.34;;;16.53;75.04
40872;BME280;26591;43.264;26.940;2022-11-21T04:56:04;97708.41;;;16.55;74.92
40872;BME280;26591;43.264;26.940;2022-11-21T04:58:30;97715.72;;;16.48;75.15
40872;BME280;26591;43.264;26.940;2022-11-21T05:00:56;97715.38;;;16.56;75.55
40872;BME280;26591;43.264;26.940;2022-11-21T05:03:21;97721.25;;;16.29;76.77
40872;BME280;26591;43.264;26.940;2022-11-21T05:05:47;97720.22;;;16.07;77.70
40872;BME280;26591;43.264;26.940;2022-11-21T05:08:13;97717.53;;;16.30;77.54
40872;BME280;26591;43.264;26.940;2022-11-21T05:10:38;97706.41;;;16.22;77.91
40872;BME280;26591;43.264;26.940;2022-11-21T05:13:22;97696.34;;;16.53;77.10
40872;BME280;26591;43.264;26.940;2022-11-21T05:15:48;97665.91;;;16.54;76.61
40872;BME280;26591;43.264;26.940;2022-11-21T05:18:20;97663.50;;;16.40;77.53
40872;BME280;26591;43.264;26.940;2022-11-21T05:20:46;97667.03;;;16.58;76.54
40872;BME280;26591;43.264;26.940;2022-11-21T05:23:14;97667.00;;;16.41;77.39
40872;BME280;26591;43.264;26.940;2022-11-21T05:25:40;97674.31;;;16.33;78.14
40872;BME280;26591;43.264;26.940;2022-11-21T05:28:05;97673.28;;;16.35;77.70
40872;BME280;26591;43.264;26.940;2022-11-21T05:30:31;97677.78;;;16.46;77.81
40872;BME280;26591;43.264;26.940;2022-11-21T05:32:56;97693.03;;;16.62;77.12
40872;BME280;26591;43.264;26.940;2022-11-21T05:35:22;97708.69;;;16.71;76.78
40872;BME280;26591;43.264;26.940;2022-11-21T05:37:47;97710.34;;;16.60;77.29
40872;BME280;26591;43.264;26.940;2022-11-21T05:40:13;97702.81;;;16.57;77.38
40872;BME280;26591;43.264;26.940;2022-11-21T05:42:40;97712.41;;;16.41;77.63
40872;BME280;26591;43.264;26.940;2022-11-21T05:45:24;97712.63;;;16.39;77.81
40872;BME280;26591;43.264;26.940;2022-11-21T05:47:50;97716.09;;;16.40;77.70
40872;BME280;26591;43.264;26.940;2022-11-21T05:50:15;97716.72;;;16.71;77.10
40872;BME280;26591;43.264;26.940;2022-11-21T05:52:47;97714.25;;;16.69;76.91
40872;BME280;26591;43.264;26.940;2022-11-21T05:55:12;97719.00;;;16.79;76.61
40872;BME280;26591;43.264;26.940;2022-11-21T05:57:38;97720.72;;;16.85;76.42
40872;BME280;26591;43.264;26.940;2022-11-21T06:00:04;97711.66;;;16.86;76.69
40872;BME280;26591;43.264;26.940;2022-11-21T06:02:31;97702.31;;;16.72;76.85
40872;BME280;26591;43.264;26.940;2022-11-21T06:05:15;97701.28;;;16.61;77.10
40872;BME280;26591;43.264;26.940;2022-11-21T06:07:40;97697.16;;;16.53;76.99
40872;BME280;26591;43.264;26.940;2022-11-21T06:10:06;97687.22;;;16.66;77.36
40872;BME280;26591;43.264;26.940;2022-11-21T06:12:35;97677.16;;;16.56;77.56
40872;BME280;26591;43.264;26.940;2022-11-21T06:15:00;97682.13;;;16.64;77.43
40872;BME280;26591;43.264;26.940;2022-11-21T06:17:26;97674.84;;;16.59;76.80
40872;BME280;26591;43.264;26.940;2022-11-21T06:19:51;97680.06;;;16.25;79.13
40872;BME280;26591;43.264;26.940;2022-11-21T06:22:17;97684.38;;;16.55;79.36
40872;BME280;26591;43.264;26.940;2022-11-21T06:24:42;97684.41;;;17.01;79.35
40872;BME280;26591;43.264;26.940;2022-11-21T06:27:08;97691.41;;;17.36;79.54
40872;BME280;26591;43.264;26.940;2022-11-21T06:29:33;97677.66;;;17.67;77.02
40872;BME280;26591;43.264;26.940;2022-11-21T06:31:59;97691.38;;;17.71;73.37
40872;BME280;26591;43.264;26.940;2022-11-21T06:34:25;97699.25;;;17.60;72.25
40872;BME280;26591;43.264;26.940;2022-11-21T06:36:51;97690.75;;;18.03;73.75
40872;BME280;26591;43.264;26.940;2022-11-21T06:39:16;97697.16;;;18.68;73.56
40872;BME280;26591;43.264;26.940;2022-11-21T06:41:42;97690.41;;;19.48;71.05
40872;BME280;26591;43.264;26.940;2022-11-21T06:44:08;97691.63;;;20.16;67.06
40872;BME280;26591;43.264;26.940;2022-11-21T06:46:33;97687.50;;;20.66;64.54
40872;BME280;26591;43.264;26.940;2022-11-21T06:48:59;97688.69;;;21.38;63.07
40872;BME280;26591;43.264;26.940;2022-11-21T06:51:39;97682.50;;;21.63;59.86
40872;BME280;26591;43.264;26.940;2022-11-21T06:54:05;97687.22;;;22.07;60.05
40872;BME280;26591;43.264;26.940;2022-11-21T06:56:30;97683.19;;;22.10;59.16
40872;BME280;26591;43.264;26.940;2022-11-21T06:58:56;97678.06;;;22.19;58.71
40872;BME280;26591;43.264;26.940;2022-11-21T07:01:22;97676.59;;;21.61;58.20
40872;BME280;26591;43.264;26.940;2022-11-21T07:03:48;97672.47;;;20.02;60.90
40872;BME280;26591;43.264;26.940;2022-11-21T07:06:14;97677.19;;;19.79;62.21
40872;BME280;26591;43.264;26.940;2022-11-21T07:08:40;97666.91;;;19.28;61.27
40872;BME280;26591;43.264;26.940;2022-11-21T07:11:07;97678.06;;;19.14;62.14
40872;BME280;26591;43.264;26.940;2022-11-21T07:13:33;97678.38;;;18.63;63.84
40872;BME280;26591;43.264;26.940;2022-11-21T07:16:07;97680.53;;;18.94;64.85
40872;BME280;26591;43.264;26.940;2022-11-21T07:18:34;97683.16;;;19.16;63.05
40872;BME280;26591;43.264;26.940;2022-11-21T07:21:00;97683.53;;;18.70;64.52
40872;BME280;26591;43.264;26.940;2022-11-21T07:23:27;97676.69;;;18.35;64.30
40872;BME280;26591;43.264;26.940;2022-11-21T07:25:53;97675.03;;;19.05;65.70
40872;BME280;26591;43.264;26.940;2022-11-21T07:28:18;97679.59;;;18.78;64.93
40872;BME280;26591;43.264;26.940;2022-11-21T07:30:44;97670.25;;;18.30;67.06
40872;BME280;26591;43.264;26.940;2022-11-21T07:33:09;97664.03;;;18.52;67.47
40872;BME280;26591;43.264;26.940;2022-11-21T07:35:35;97665.47;;;18.87;67.37
40872;BME280;26591;43.264;26.940;2022-11-21T07:38:06;97657.84;;;18.74;67.20
40872;BME280;26591;43.264;26.940;2022-11-21T07:40:32;97660.25;;;18.48;67.50
40872;BME280;26591;43.264;26.940;2022-11-21T07:43:04;97660.34;;;18.31;68.04
40872;BME280;26591;43.264;26.940;2022-11-21T07:45:30;97653.47;;;18.40;67.73
40872;BME280;26591;43.264;26.940;2022-11-21T07:47:57;97669.16;;;18.32;68.22
40872;BME280;26591;43.264;26.940;2022-11-21T07:50:22;97668.06;;;18.27;68.31
40872;BME280;26591;43.264;26.940;2022-11-21T07:52:48;97677.53;;;18.63;67.22
40872;BME280;26591;43.264;26.940;2022-11-21T07:55:13;97678.47;;;18.73;66.69
40872;BME280;26591;43.264;26.940;2022-11-21T07:57:39;97688.88;;;19.25;66.36
40872;BME280;26591;43.264;26.940;2022-11-21T08:00:05;97679.28;;;19.34;64.10
40872;BME280;26591;43.264;26.940;2022-11-21T08:02:30;97681.22;;;19.81;63.62
40872;BME280;26591;43.264;26.940;2022-11-21T08:04:56;97673.47;;;19.85;60.16
40872;BME280;26591;43.264;26.940;2022-11-21T08:07:22;97671.22;;;19.72;59.22
40872;BME280;26591;43.264;26.940;2022-11-21T08:09:48;97684.91;;;19.32;58.51
40872;BME280;26591;43.264;26.940;2022-11-21T08:12:14;97675.09;;;19.48;57.56
40872;BME280;26591;43.264;26.940;2022-11-21T08:14:40;97679.41;;;19.49;56.23
40872;BME280;26591;43.264;26.940;2022-11-21T08:17:06;97672.06;;;19.34;55.60
40872;BME280;26591;43.264;26.940;2022-11-21T08:19:31;97662.78;;;19.47;54.59
40872;BME280;26591;43.264;26.940;2022-11-21T08:21:57;97663.06;;;19.56;54.91
40872;BME280;26591;43.264;26.940;2022-11-21T08:24:23;97665.00;;;19.66;54.73
40872;BME280;26591;43.264;26.940;2022-11-21T08:26:49;97667.69;;;19.61;55.20
40872;BME280;26591;43.264;26.940;2022-11-21T08:29:14;97675.41;;;19.95;53.28
40872;BME280;26591;43.264;26.940;2022-11-21T08:31:40;97670.69;;;20.18;52.42
40872;BME280;26591;43.264;26.940;2022-11-21T08:34:07;97685.81;;;20.34;52.28
40872;BME280;26591;43.264;26.940;2022-11-21T08:36:32;97675.44;;;20.69;52.09
40872;BME280;26591;43.264;26.940;2022-11-21T08:38:59;97674.59;;;20.68;50.87
40872;BME280;26591;43.264;26.940;2022-11-21T08:41:25;97655.72;;;20.32;50.93
40872;BME280;26591;43.264;26.940;2022-11-21T08:44:09;97663.22;;;20.30;51.00
40872;BME280;26591;43.264;26.940;2022-11-21T08:46:35;97661.50;;;20.08;50.70
40872;BME280;26591;43.264;26.940;2022-11-21T08:49:07;97654.50;;;20.02;51.29
40872;BME280;26591;43.264;26.940;2022-11-21T08:51:34;97658.16;;;19.86;51.76
40872;BME280;26591;43.264;26.940;2022-11-21T08:54:00;97651.28;;;19.57;52.07
40872;BME280;26591;43.264;26.940;2022-11-21T08:56:26;97663.19;;;19.34;52.76
40872;BME280;26591;43.264;26.940;2022-11-21T08:58:51;97660.09;;;19.15;52.75
40872;BME280;26591;43.264;26.940;2022-11-21T09:01:17;97664.88;;;19.08;53.20
40872;BME280;26591;43.264;26.940;2022-11-21T09:03:43;97660.59;;;19.12;52.72
40872;BME280;26591;43.264;26.940;2022-11-21T09:06:09;97656.72;;;18.97;52.48
40872;BME280;26591;43.264;26.940;2022-11-21T09:08:36;97654.31;;;18.96;52.92
40872;BME280;26591;43.264;26.940;2022-11-21T09:11:06;97649.56;;;19.03;52.70
40872;BME280;26591;43.264;26.940;2022-11-21T09:13:32;97656.34;;;19.11;52.07
40872;BME280;26591;43.264;26.940;2022-11-21T09:15:58;97656.13;;;19.55;51.34
40872;BME280;26591;43.264;26.940;2022-11-21T09:18:43;97663.34;;;19.55;50.79
40872;BME280;26591;43.264;26.940;2022-11-21T09:21:16;97650.09;;;19.86;50.59
40872;BME280;26591;43.264;26.940;2022-11-21T09:23:42;97651.09;;;19.69;50.61
40872;BME280;26591;43.264;26.940;2022-11-21T09:26:07;97647.94;;;19.77;50.53
40872;BME280;26591;43.264;26.940;2022-11-21T09:28:33;97639.56;;;19.69;50.74
40872;BME280;26591;43.264;26.940;2022-11-21T09:31:02;97642.38;;;19.51;51.10
40872;BME280;26591;43.264;26.940;2022-11-21T09:33:28;97628.84;;;19.31;51.02
40872;BME280;26591;43.264;26.940;2022-11-21T09:35:53;97626.06;;;19.20;50.68
40872;BME280;26591;43.264;26.940;2022-11-21T09:38:19;97611.59;;;19.16;51.02
40872;BME280;26591;43.264;26.940;2022-11-21T09:40:46;97630.56;;;19.10;51.79
40872;BME280;26591;43.264;26.940;2022-11-21T09:46:14;97623.19;;;18.95;51.16
40872;BME280;26591;43.264;26.940;2022-11-21T09:48:54;97635.72;;;18.89;51.44
40872;BME280;26591;43.264;26.940;2022-11-21T09:51:23;97621.53;;;19.21;51.38
40872;BME280;26591;43.264;26.940;2022-11-21T09:54:02;97617.69;;;19.06;51.58
40872;BME280;26591;43.264;26.940;2022-11-21T09:56:34;97614.72;;;19.08;51.77
40872;BME280;26591;43.264;26.940;2022-11-21T10:01:36;97614.13;;;19.33;51.67
40872;BME280;26591;43.264;26.940;2022-11-21T10:04:01;97611.84;;;19.58;51.10
40872;BME280;26591;43.264;26.940;2022-11-21T10:18:30;97597.69;;;19.73;49.25
40872;BME280;26591;43.264;26.940;2022-11-21T10:26:43;97631.31;;;19.05;55.19
40872;BME280;26591;43.264;26.940;2022-11-21T10:29:17;97655.41;;;18.72;59.07
40872;BME280;26591;43.264;26.940;2022-11-21T10:31:44;97663.19;;;17.63;63.42
40872;BME280;26591;43.264;26.940;2022-11-21T10:34:23;97662.72;;;17.15;65.64
40872;BME280;26591;43.264;26.940;2022-11-21T10:36:54;97674.84;;;16.59;67.84
40872;BME280;26591;43.264;26.940;2022-11-21T10:42:04;97676.00;;;16.23;69.23
40872;BME280;26591;43.264;26.940;2022-11-21T10:44:35;97661.31;;;16.08;68.88
40872;BME280;26591;43.264;26.940;2022-11-21T10:47:22;97669.78;;;15.69;69.20
40872;BME280;26591;43.264;26.940;2022-11-21T10:53:13;97672.09;;;15.18;71.56
40872;BME280;26591;43.264;26.940;2022-11-21T10:56:22;97686.53;;;14.68;72.46
40872;BME280;26591;43.264;26.940;2022-11-21T10:58:49;97676.59;;;14.75;72.65
40872;BME280;26591;43.264;26.940;2022-11-21T11:06:42;97696.25;;;14.44;74.00
40872;BME280;26591;43.264;26.940;2022-11-21T11:09:26;97705.03;;;14.44;72.91
40872;BME280;26591;43.264;26.940;2022-11-21T11:12:26;97707.72;;;14.26;73.38
40872;BME280;26591;43.264;26.940;2022-11-21T11:15:20;97715.97;;;13.99;74.49
40872;BME280;26591;43.264;26.940;2022-11-21T11:18:05;97733.22;;;13.71;76.28
40872;BME280;26591;43.264;26.940;2022-11-21T11:20:32;97737.25;;;13.80;75.80
40872;BME280;26591;43.264;26.940;2022-11-21T11:22:58;97747.13;;;13.73;76.35
40872;BME280;26591;43.264;26.940;2022-11-21T11:25:24;97769.69;;;13.32;77.68
40872;BME280;26591;43.264;26.940;2022-11-21T11:27:49;97751.38;;;13.17;77.31
40872;BME280;26591;43.264;26.940;2022-11-21T11:30:16;97771.09;;;13.02;77.76
40872;BME280;26591;43.264;26.940;2022-11-21T11:32:42;97770.25;;;13.08;78.53
40872;BME280;26591;43.264;26.940;2022-11-21T11:37:58;97794.03;;;13.28;80.60
40872;BME280;26591;43.264;26.940;2022-11-21T11:40:37;97789.28;;;13.37;76.42
40872;BME280;26591;43.264;26.940;2022-11-21T11:46:23;97793.22;;;13.28;75.34
40872;BME280;26591;43.264;26.940;2022-11-21T11:51:47;97781.22;;;12.80;76.76
40872;BME280;26591;43.264;26.940;2022-11-21T11:54:22;97787.41;;;12.67;77.06
40872;BME280;26591;43.264;26.940;2022-11-21T11:56:49;97805.28;;;12.85;77.38
40872;BME280;26591;43.264;26.940;2022-11-21T11:59:46;97806.34;;;12.77;77.61
40872;BME280;26591;43.264;26.940;2022-11-21T12:02:23;97806.75;;;12.74;77.94
40872;BME280;26591;43.264;26.940;2022-11-21T12:04:58;97805.75;;;12.75;77.04
40872;BME280;26591;43.264;26.940;2022-11-21T12:07:34;97784.91;;;12.79;77.18
40872;BME280;26591;43.264;26.940;2022-11-21T12:10:19;97802.41;;;12.87;76.12
40872;BME280;26591;43.264;26.940;2022-11-21T12:13:07;97788.06;;;13.01;75.52
40872;BME280;26591;43.264;26.940;2022-11-21T12:15:46;97796.00;;;13.08;75.02
40872;BME280;26591;43.264;26.940;2022-11-21T12:23:31;97798.13;;;13.24;73.63
40872;BME280;26591;43.264;26.940;2022-11-21T12:48:16;97798.56;;;11.90;79.86
40872;BME280;26591;43.264;26.940;2022-11-21T12:57:14;97813.03;;;11.94;81.25
40872;BME280;26591;43.264;26.940;2022-11-21T13:05:23;97804.47;;;11.79;80.01
40872;BME280;26591;43.264;26.940;2022-11-21T13:07:53;97807.97;;;11.72;79.99
40872;BME280;26591;43.264;26.940;2022-11-21T13:10:24;97809.59;;;11.60;80.06
40872;BME280;26591;43.264;26.940;2022-11-21T13:13:08;97812.81;;;11.55;79.55
40872;BME280;26591;43.264;26.940;2022-11-21T13:15:52;97829.53;;;11.49;79.68
40872;BME280;26591;43.264;26.940;2022-11-21T13:18:24;97830.31;;;11.36;79.77
40872;BME280;26591;43.264;26.940;2022-11-21T13:20:52;97833.41;;;11.47;79.34
40872;BME280;26591;43.264;26.940;2022-11-21T13:23:48;97831.31;;;11.22;80.19
40872;BME280;26591;43.264;26.940;2022-11-21T13:28:48;97842.94;;;11.27;79.92
40872;BME280;26591;43.264;26.940;2022-11-21T13:31:32;97844.94;;;11.19;80.61
40872;BME280;26591;43.264;26.940;2022-11-21T13:33:58;97839.16;;;10.95;80.92
40872;BME280;26591;43.264;26.940;2022-11-21T13:58:25;97890.50;;;11.69;79.33
40872;BME280;26591;43.264;26.940;2022-11-21T14:06:39;97891.53;;;11.75;79.39
40872;BME280;26591;43.264;26.940;2022-11-21T14:09:25;97891.91;;;11.58;79.50
40872;BME280;26591;43.264;26.940;2022-11-21T14:11:58;97906.22;;;11.78;79.08
40872;BME280;26591;43.264;26.940;2022-11-21T14:14:27;97906.06;;;12.40;80.10
40872;BME280;26591;43.264;26.940;2022-11-21T14:19:45;97907.94;;;12.05;77.13
40872;BME280;26591;43.264;26.940;2022-11-21T14:22:33;97900.50;;;11.74;77.41
40872;BME280;26591;43.264;26.940;2022-11-21T14:25:00;97912.75;;;11.95;77.21
40872;BME280;26591;43.264;26.940;2022-11-21T14:27:29;97905.34;;;11.43;77.51
40872;BME280;26591;43.264;26.940;2022-11-21T14:29:57;97905.34;;;11.43;77.85
40872;BME280;26591;43.264;26.940;2022-11-21T14:32:29;97932.81;;;11.36;78.11
40872;BME280;26591;43.264;26.940;2022-11-21T14:35:19;97940.94;;;11.34;77.55
40872;BME280;26591;43.264;26.940;2022-11-21T14:37:45;97947.91;;;11.42;77.42
40872;BME280;26591;43.264;26.940;2022-11-21T14:40:22;97947.72;;;11.43;77.03
40872;BME280;26591;43.264;26.940;2022-11-21T14:42:48;97948.78;;;11.56;76.26
40872;BME280;26591;43.264;26.940;2022-11-21T14:45:17;97952.06;;;11.58;75.75
40872;BME280;26591;43.264;26.940;2022-11-21T14:47:51;97944.44;;;10.93;76.55
40872;BME280;26591;43.264;26.940;2022-11-21T14:50:28;97957.00;;;10.84;77.55
40872;BME280;26591;43.264;26.940;2022-11-21T14:52:55;97952.53;;;10.84;77.56
40872;BME280;26591;43.264;26.940;2022-11-21T14:55:28;97968.09;;;10.66;77.67
40872;BME280;26591;43.264;26.940;2022-11-21T14:57:56;97943.22;;;10.60;78.53
40872;BME280;26591;43.264;26.940;2022-11-21T15:00:25;97942.59;;;10.58;78.05
40872;BME280;26591;43.264;26.940;2022-11-21T15:02:53;97938.78;;;10.67;77.79